createdAt,value
2022-12-11T00:00:53.473Z,0.80
2022-12-11T00:04:55.103Z,0.80
2022-12-11T00:08:56.946Z,0.80
2022-12-11T00:12:58.634Z,0.90
2022-12-11T00:17:00.342Z,0.80
2022-12-11T00:21:07.053Z,0.80
2022-12-11T00:25:09.763Z,0.80
2022-12-11T00:29:14.437Z,0.80
2022-12-11T00:33:17.046Z,0.90
2022-12-11T00:37:18.739Z,0.80
2022-12-11T00:41:20.927Z,0.80
2022-12-11T00:45:22.956Z,0.80
2022-12-11T00:49:24.607Z,0.80
2022-12-11T00:53:26.337Z,0.90
2022-12-11T00:57:27.987Z,0.80
2022-12-11T01:01:29.726Z,0.80
2022-12-11T01:05:32.314Z,0.90
2022-12-11T01:09:52.423Z,0.80
2022-12-11T01:13:54.064Z,0.90
2022-12-11T01:17:56.359Z,0.80
2022-12-11T01:21:58.068Z,0.80
2022-12-11T01:26:08.302Z,0.80
2022-12-11T01:30:10.698Z,0.80
2022-12-11T01:34:12.350Z,0.90
2022-12-11T01:38:13.960Z,0.90
2022-12-11T01:42:19.482Z,0.90
2022-12-11T01:46:21.248Z,0.90
2022-12-11T01:50:23.567Z,0.80
2022-12-11T01:54:27.781Z,0.90
2022-12-11T01:58:36.298Z,0.90
2022-12-11T02:02:38.065Z,0.90
2022-12-11T02:06:47.283Z,0.90
2022-12-11T02:10:58.636Z,0.90
2022-12-11T02:15:13.196Z,0.90
2022-12-11T02:19:21.618Z,1.00
2022-12-11T02:23:31.988Z,1.00
2022-12-11T02:27:38.004Z,0.90
2022-12-11T02:31:50.178Z,0.90
2022-12-11T02:35:52.315Z,1.00
2022-12-11T02:39:56.051Z,0.90
2022-12-11T02:43:58.475Z,0.90
2022-12-11T02:48:05.646Z,0.90
2022-12-11T02:52:11.184Z,0.90
2022-12-11T02:56:36.395Z,0.90
2022-12-11T03:00:38.058Z,0.90
2022-12-11T03:04:40.909Z,0.90
2022-12-11T03:08:42.682Z,0.80
2022-12-11T03:12:51.882Z,0.90
2022-12-11T03:17:04.965Z,0.90
2022-12-11T03:21:14.717Z,0.90
2022-12-11T03:25:21.379Z,0.90
2022-12-11T03:29:35.044Z,0.90
2022-12-11T03:33:41.572Z,0.90
2022-12-11T03:37:44.903Z,1.00
2022-12-11T03:41:48.280Z,1.00
2022-12-11T03:45:51.855Z,1.00
2022-12-11T03:49:55.719Z,1.00
2022-12-11T03:53:57.923Z,1.00
2022-12-11T03:57:59.551Z,1.00
2022-12-11T04:02:01.351Z,1.00
2022-12-11T04:06:03.257Z,1.10
2022-12-11T04:10:06.804Z,1.20
2022-12-11T04:14:32.225Z,1.20
2022-12-11T04:18:52.591Z,1.10
2022-12-11T04:23:13.012Z,1.10
2022-12-11T04:27:14.811Z,1.10
2022-12-11T04:31:19.729Z,1.10
2022-12-11T04:35:21.604Z,1.10
2022-12-11T04:39:23.251Z,1.10
2022-12-11T04:43:25.002Z,1.20
2022-12-11T04:47:27.445Z,1.10
2022-12-11T04:51:29.265Z,1.10
2022-12-11T04:55:30.900Z,1.00
2022-12-11T04:59:33.362Z,1.00
2022-12-11T05:03:35.574Z,1.00
2022-12-11T05:07:37.866Z,1.10
2022-12-11T05:11:39.554Z,1.10
2022-12-11T05:15:41.267Z,1.10
2022-12-11T05:19:42.910Z,1.10
2022-12-11T05:23:44.594Z,1.20
2022-12-11T05:27:46.235Z,1.20
2022-12-11T05:31:48.101Z,1.10
2022-12-11T05:35:49.915Z,1.10
2022-12-11T05:39:51.551Z,1.10
2022-12-11T05:43:53.574Z,1.10
2022-12-11T05:47:55.277Z,1.10
2022-12-11T05:51:56.921Z,1.10
2022-12-11T05:56:06.868Z,1.00
2022-12-11T06:00:09.511Z,1.10
2022-12-11T06:04:12.551Z,1.00
2022-12-11T06:08:14.278Z,1.10
2022-12-11T06:12:15.943Z,1.10
2022-12-11T06:16:17.628Z,1.20
2022-12-11T06:20:19.515Z,1.00
2022-12-11T06:24:21.146Z,0.90
2022-12-11T06:28:23.262Z,0.90
2022-12-11T06:32:24.946Z,0.90
2022-12-11T06:36:26.570Z,1.00
2022-12-11T06:40:28.206Z,1.00
2022-12-11T06:44:29.908Z,1.00
2022-12-11T06:48:31.816Z,1.00
2022-12-11T06:52:33.477Z,0.90
2022-12-11T06:56:35.873Z,0.90
2022-12-11T07:00:38.501Z,0.90
2022-12-11T07:04:40.958Z,0.90
2022-12-11T07:08:43.466Z,1.00
2022-12-11T07:12:45.179Z,1.00
2022-12-11T07:16:46.946Z,1.00
2022-12-11T07:20:48.656Z,1.10
2022-12-11T07:24:50.315Z,1.00
2022-12-11T07:28:52.034Z,1.00
2022-12-11T07:32:53.678Z,1.00
2022-12-11T07:36:55.365Z,1.10
2022-12-11T07:41:00.320Z,1.00
2022-12-11T07:45:01.939Z,1.10
2022-12-11T07:49:05.854Z,1.00
2022-12-11T07:53:07.654Z,1.00
2022-12-11T07:57:14.153Z,1.00
2022-12-11T08:01:18.985Z,1.00
2022-12-11T08:05:20.674Z,1.00
2022-12-11T08:09:22.540Z,1.10
2022-12-11T08:13:24.191Z,1.10
2022-12-11T08:17:29.603Z,1.10
2022-12-11T08:21:33.528Z,1.00
2022-12-11T08:25:35.859Z,1.10
2022-12-11T08:29:37.669Z,1.10
2022-12-11T08:33:40.352Z,1.20
2022-12-11T08:37:42.522Z,1.10
2022-12-11T08:41:44.289Z,1.10
2022-12-11T08:45:46.691Z,1.10
2022-12-11T08:49:48.433Z,1.20
2022-12-11T08:53:51.172Z,1.20
2022-12-11T08:57:52.826Z,1.20
2022-12-11T09:01:55.705Z,1.20
2022-12-11T09:05:57.339Z,1.20
2022-12-11T09:09:58.984Z,1.30
2022-12-11T09:14:06.810Z,1.30
2022-12-11T09:18:09.450Z,1.30
2022-12-11T09:22:12.526Z,1.30
2022-12-11T09:26:17.410Z,1.30
2022-12-11T09:30:19.050Z,1.40
2022-12-11T09:34:24.798Z,1.30
2022-12-11T09:38:31.839Z,1.30
2022-12-11T09:42:54.239Z,1.30
2022-12-11T09:46:58.175Z,1.30
2022-12-11T09:51:14.423Z,1.40
2022-12-11T09:55:24.587Z,1.40
2022-12-11T09:59:50.597Z,1.30
2022-12-11T10:04:05.813Z,1.40
2022-12-11T10:08:13.376Z,1.40
2022-12-11T10:12:23.871Z,1.30
2022-12-11T10:16:41.455Z,1.40
2022-12-11T10:20:45.029Z,1.40
2022-12-11T10:25:11.064Z,1.30
2022-12-11T10:29:15.291Z,1.30
2022-12-11T10:33:49.911Z,1.40
2022-12-11T10:37:55.326Z,1.40
2022-12-11T10:41:57.935Z,1.40
2022-12-11T10:45:59.916Z,1.50
2022-12-11T10:50:03.963Z,1.50
2022-12-11T10:54:33.646Z,1.40
2022-12-11T10:58:39.786Z,1.50
2022-12-11T11:02:45.385Z,1.50
2022-12-11T11:06:47.220Z,1.60
2022-12-11T11:10:57.444Z,1.60
2022-12-11T11:15:04.941Z,1.50
2022-12-11T11:19:07.066Z,1.50
2022-12-11T11:23:14.139Z,1.60
2022-12-11T11:27:44.399Z,1.60
2022-12-11T11:31:46.067Z,1.70
2022-12-11T11:36:00.861Z,1.60
2022-12-11T11:40:28.037Z,1.60
2022-12-11T11:44:43.723Z,1.60
2022-12-11T11:48:48.414Z,1.70
2022-12-11T11:53:04.682Z,1.70
2022-12-11T11:57:35.291Z,1.70
2022-12-11T12:01:37.082Z,1.70
2022-12-11T12:05:57.423Z,1.50
2022-12-11T12:10:23.799Z,1.40
2022-12-11T12:18:57.624Z,1.50
2022-12-11T12:22:59.193Z,1.40
2022-12-11T12:27:50.383Z,1.40
2022-12-11T12:32:08.125Z,1.40
2022-12-11T12:36:39.071Z,1.50
2022-12-11T12:40:43.703Z,1.60
2022-12-11T12:45:20.267Z,1.60
2022-12-11T12:49:39.814Z,1.50
2022-12-11T12:53:44.293Z,1.50
2022-12-11T12:57:57.986Z,1.60
2022-12-11T13:02:02.697Z,1.70
2022-12-11T13:06:09.086Z,1.60
2022-12-11T13:10:27.571Z,1.60
2022-12-11T13:14:33.657Z,1.70
2022-12-11T13:18:37.999Z,1.50
2022-12-11T13:22:53.687Z,1.50
2022-12-11T13:26:55.677Z,1.50
2022-12-11T13:31:08.176Z,1.50
2022-12-11T13:35:17.397Z,1.40
2022-12-11T13:39:25.466Z,1.40
2022-12-11T13:43:29.715Z,1.50
2022-12-11T13:47:32.834Z,1.50
2022-12-11T13:51:36.065Z,1.60
2022-12-11T13:55:37.685Z,1.50
2022-12-11T13:59:43.336Z,1.50
2022-12-11T14:03:55.342Z,1.50
2022-12-11T14:08:01.211Z,1.50
2022-12-11T14:12:02.997Z,1.50
2022-12-11T14:16:06.196Z,1.50
2022-12-11T14:20:18.028Z,1.60
2022-12-11T14:24:19.713Z,1.60
2022-12-11T14:28:23.143Z,1.70
2022-12-11T14:32:41.797Z,1.50
2022-12-11T14:36:46.301Z,1.50
2022-12-11T14:40:51.650Z,1.40
2022-12-11T14:44:55.267Z,1.50
2022-12-11T14:49:01.715Z,1.50
2022-12-11T14:53:08.987Z,1.60
2022-12-11T14:57:20.209Z,1.60
2022-12-11T15:01:36.959Z,1.50
2022-12-11T15:05:55.704Z,1.60
2022-12-11T15:09:57.406Z,1.50
2022-12-11T15:14:02.626Z,1.30
2022-12-11T15:18:07.558Z,1.30
2022-12-11T15:22:15.069Z,1.20
2022-12-11T15:26:16.886Z,1.20
2022-12-11T15:30:19.674Z,1.20
2022-12-11T15:34:24.251Z,1.20
2022-12-11T15:38:39.387Z,1.20
2022-12-11T15:42:42.304Z,1.10
2022-12-11T15:46:43.943Z,1.20
2022-12-11T15:50:45.699Z,1.10
2022-12-11T15:54:47.302Z,1.10
2022-12-11T15:58:49.421Z,1.10
2022-12-11T16:02:51.996Z,1.10
2022-12-11T16:06:54.491Z,1.10
2022-12-11T16:10:56.205Z,1.20
2022-12-11T16:14:58.032Z,1.10
2022-12-11T16:19:00.611Z,1.10
2022-12-11T16:23:02.690Z,1.10
2022-12-11T16:27:05.923Z,1.10
2022-12-11T16:31:14.605Z,1.00
2022-12-11T16:35:16.410Z,1.10
2022-12-11T16:39:18.073Z,1.10
2022-12-11T16:43:19.713Z,1.10
2022-12-11T16:47:21.343Z,1.10
2022-12-11T16:51:23.290Z,1.10
2022-12-11T16:55:24.967Z,1.10
2022-12-11T16:59:26.588Z,1.20
2022-12-11T17:03:34.137Z,1.20
2022-12-11T17:07:35.985Z,1.10
2022-12-11T17:11:37.717Z,1.00
2022-12-11T17:15:41.229Z,1.10
2022-12-11T17:19:42.958Z,1.00
2022-12-11T17:23:45.065Z,1.00
2022-12-11T17:27:46.689Z,1.10
2022-12-11T17:31:48.397Z,1.10
2022-12-11T17:35:50.479Z,1.00
2022-12-11T17:39:52.156Z,1.00
2022-12-11T17:43:54.112Z,1.00
2022-12-11T17:47:55.754Z,1.10
2022-12-11T17:51:57.551Z,1.10
2022-12-11T17:56:04.648Z,1.10
2022-12-11T18:00:07.098Z,1.10
2022-12-11T18:04:08.844Z,1.00
2022-12-11T18:08:14.699Z,1.10
2022-12-11T18:12:16.348Z,1.10
2022-12-11T18:16:25.171Z,1.10
2022-12-11T18:20:27.103Z,1.00
2022-12-11T18:24:31.768Z,1.10
2022-12-11T18:28:33.477Z,1.10
2022-12-11T18:32:35.237Z,1.10
2022-12-11T18:36:36.873Z,1.10
2022-12-11T18:40:39.023Z,1.20
2022-12-11T18:44:43.010Z,1.20
2022-12-11T18:48:46.692Z,1.10
2022-12-11T18:52:53.084Z,1.20
2022-12-11T18:56:54.754Z,1.10
2022-12-11T19:00:56.442Z,1.10
2022-12-11T19:04:58.093Z,1.10
2022-12-11T19:09:00.248Z,1.10
2022-12-11T19:13:02.035Z,1.10
2022-12-11T19:17:03.843Z,1.00
2022-12-11T19:21:12.366Z,0.90
2022-12-11T19:25:14.487Z,1.00
2022-12-11T19:29:25.631Z,1.00
2022-12-11T19:33:27.267Z,0.90
2022-12-11T19:37:28.876Z,0.90
2022-12-11T19:41:31.042Z,0.80
2022-12-11T19:45:32.667Z,0.80
2022-12-11T19:49:34.384Z,0.90
2022-12-11T19:53:36.710Z,0.90
2022-12-11T19:57:38.755Z,0.90
2022-12-11T20:01:40.504Z,0.90
2022-12-11T20:05:42.275Z,0.80
2022-12-11T20:09:44.012Z,0.80
2022-12-11T20:13:47.038Z,0.80
2022-12-11T20:17:55.886Z,0.70
2022-12-11T20:21:58.930Z,0.80
2022-12-11T20:26:25.145Z,0.90
2022-12-11T20:30:26.826Z,1.00
2022-12-11T20:34:28.572Z,0.80
2022-12-11T20:38:34.434Z,0.90
2022-12-11T20:42:36.487Z,0.90
2022-12-11T20:46:38.377Z,1.00
2022-12-11T20:50:40.120Z,1.00
2022-12-11T20:54:41.954Z,1.00
2022-12-11T20:58:44.407Z,0.90
2022-12-11T21:02:46.086Z,0.90
2022-12-11T21:06:55.723Z,0.90
2022-12-11T21:10:57.377Z,0.90
2022-12-11T21:14:59.039Z,0.90
2022-12-11T21:19:01.547Z,1.00
2022-12-11T21:23:03.753Z,1.00
2022-12-11T21:27:05.420Z,1.00
2022-12-11T21:31:09.764Z,1.00
2022-12-11T21:35:12.317Z,1.00
2022-12-11T21:39:14.879Z,1.10
2022-12-11T21:43:16.714Z,1.10
2022-12-11T21:47:18.393Z,1.20
2022-12-11T21:51:30.966Z,1.20
2022-12-11T21:55:40.221Z,1.10
2022-12-11T21:59:41.905Z,1.10
2022-12-11T22:03:43.693Z,1.00
2022-12-11T22:07:45.397Z,1.20
2022-12-11T22:11:47.443Z,1.20
2022-12-11T22:15:49.217Z,1.30
2022-12-11T22:19:53.838Z,1.40
2022-12-11T22:23:55.586Z,1.30
2022-12-11T22:27:57.225Z,1.40
2022-12-11T22:31:59.067Z,1.30
2022-12-11T22:36:00.927Z,1.40
2022-12-11T22:40:02.881Z,1.30
2022-12-11T22:44:04.754Z,1.30
2022-12-11T22:48:07.869Z,1.30
2022-12-11T22:52:09.883Z,1.30
2022-12-11T22:56:13.406Z,1.20
2022-12-11T23:00:15.523Z,1.30
2022-12-11T23:04:17.283Z,1.30
2022-12-11T23:08:19.053Z,1.30
2022-12-11T23:12:20.856Z,1.30
2022-12-11T23:16:24.841Z,1.40
2022-12-11T23:20:26.862Z,1.40
2022-12-11T23:24:28.889Z,1.40
2022-12-11T23:28:30.517Z,1.40
2022-12-11T23:32:32.122Z,1.40
2022-12-11T23:36:33.851Z,1.40
2022-12-11T23:40:36.174Z,1.30
2022-12-11T23:44:37.842Z,1.40
2022-12-11T23:48:39.687Z,1.40
2022-12-11T23:52:41.639Z,1.30
2022-12-11T23:56:43.321Z,1.30
